createdAt,value
2023-03-20T00:04:14.201Z,8.57
2023-03-20T00:09:14.115Z,8.47
2023-03-20T00:14:13.714Z,8.43
2023-03-20T00:19:14.140Z,8.38
2023-03-20T00:24:11.519Z,8.35
2023-03-20T00:29:11.423Z,8.31
2023-03-20T00:34:10.363Z,8.29
2023-03-20T00:39:09.843Z,8.26
2023-03-20T00:44:08.279Z,8.2
2023-03-20T00:49:07.958Z,8.16
2023-03-20T00:54:08.015Z,8.13
2023-03-20T00:58:54.526Z,8.06
2023-03-20T01:03:53.888Z,8.01
2023-03-20T01:08:53.456Z,7.95
2023-03-20T01:13:53.389Z,7.9
2023-03-20T01:18:52.527Z,7.81
2023-03-20T01:23:53.156Z,7.75
2023-03-20T01:28:50.329Z,7.72
2023-03-20T01:33:49.596Z,7.69
2023-03-20T01:38:48.959Z,7.66
2023-03-20T01:43:48.157Z,7.63
2023-03-20T01:48:47.418Z,7.61
2023-03-20T01:53:47.345Z,7.61
2023-03-20T01:58:46.608Z,7.61
2023-03-20T02:03:47.362Z,7.6
2023-03-20T02:08:44.979Z,7.58
2023-03-20T02:13:44.829Z,7.54
2023-03-20T02:18:44.005Z,7.5
2023-03-20T02:23:43.379Z,7.49
2023-03-20T02:28:42.002Z,7.47
2023-03-20T02:33:41.655Z,7.45
2023-03-20T02:38:41.568Z,7.45
2023-03-20T02:43:41.090Z,7.44
2023-03-20T02:48:40.189Z,7.44
2023-03-20T02:53:39.830Z,7.42
2023-03-20T02:58:39.762Z,7.43
2023-03-20T03:03:39.007Z,7.43
2023-03-20T03:08:39.519Z,7.43
2023-03-20T03:13:36.357Z,7.44
2023-03-20T03:18:36.260Z,7.45
2023-03-20T03:23:35.833Z,7.44
2023-03-20T03:28:35.227Z,7.43
2023-03-20T03:33:34.584Z,7.43
2023-03-20T03:38:34.442Z,7.42
2023-03-20T03:43:33.674Z,7.43
2023-03-20T03:48:34.507Z,7.42
2023-03-20T03:53:31.734Z,7.41
2023-03-20T03:58:31.870Z,7.4
2023-03-20T03:59:53.233Z,7.39
2023-03-20T04:04:52.637Z,7.38
2023-03-20T04:09:51.288Z,7.37
2023-03-20T04:14:51.120Z,7.34
2023-03-20T04:19:50.826Z,7.34
2023-03-20T04:24:50.155Z,7.34
2023-03-20T04:29:49.387Z,7.33
2023-03-20T04:34:49.136Z,7.32
2023-03-20T04:39:48.922Z,7.32
2023-03-20T04:44:48.255Z,7.31
2023-03-20T04:49:46.209Z,7.3
2023-03-20T04:54:45.780Z,7.31
2023-03-20T04:59:12.439Z,7.31
2023-03-20T05:04:11.754Z,7.3
2023-03-20T05:09:11.013Z,7.29
2023-03-20T05:14:21.769Z,7.28
2023-03-20T05:19:10.696Z,7.27
2023-03-20T05:24:09.788Z,7.25
2023-03-20T05:29:10.831Z,7.27
2023-03-20T05:34:08.013Z,7.27
2023-03-20T05:39:07.856Z,7.29
2023-03-20T05:44:06.951Z,7.28
2023-03-20T05:49:06.329Z,7.29
2023-03-20T05:54:04.841Z,7.3
2023-03-20T05:58:51.743Z,7.31
2023-03-20T06:03:51.602Z,7.33
2023-03-20T06:08:51.052Z,7.36
2023-03-20T06:13:50.202Z,7.36
2023-03-20T06:18:49.733Z,7.36
2023-03-20T06:23:49.398Z,7.37
2023-03-20T06:28:49.414Z,7.37
2023-03-20T06:33:47.731Z,7.39
2023-03-20T06:38:47.395Z,7.42
2023-03-20T06:43:47.504Z,7.45
2023-03-20T06:48:46.929Z,7.48
2023-03-20T06:53:45.712Z,7.51
2023-03-20T06:58:45.448Z,7.57
2023-03-20T07:03:44.645Z,7.6
2023-03-20T07:08:44.469Z,7.63
2023-03-20T07:13:43.122Z,7.65
2023-03-20T07:18:42.654Z,7.69
2023-03-20T07:23:42.672Z,7.71
2023-03-20T07:28:42.113Z,7.76
2023-03-20T07:33:41.848Z,7.81
2023-03-20T07:38:40.970Z,7.85
2023-03-20T07:43:41.931Z,7.87
2023-03-20T07:48:40.233Z,7.93
2023-03-20T07:53:40.997Z,8.03
2023-03-20T07:58:38.298Z,8.13
2023-03-20T08:00:09.498Z,8.13
2023-03-20T08:05:10.856Z,8.24
2023-03-20T08:10:07.577Z,8.28
2023-03-20T08:15:08.112Z,8.31
2023-03-20T08:20:08.028Z,8.34
2023-03-20T08:24:55.701Z,8.41
2023-03-20T08:29:55.735Z,8.43
2023-03-20T08:34:55.858Z,8.43
2023-03-20T08:39:54.973Z,8.53
2023-03-20T08:44:54.183Z,8.62
2023-03-20T08:49:54.082Z,8.76
2023-03-20T08:54:53.769Z,8.87
2023-03-20T08:59:08.931Z,8.93
2023-03-20T09:04:08.444Z,8.97
2023-03-20T09:09:08.521Z,8.95
2023-03-20T09:14:08.155Z,8.81
2023-03-20T09:19:09.341Z,8.77
2023-03-20T09:23:56.388Z,8.74
2023-03-20T09:28:55.998Z,8.85
2023-03-20T09:33:55.294Z,8.97
2023-03-20T09:39:11.452Z,9.03
2023-03-20T09:43:53.145Z,9.07
2023-03-20T09:48:54.689Z,9.06
2023-03-20T09:53:53.286Z,9.16
2023-03-20T09:58:51.952Z,9.33
2023-03-20T10:03:52.059Z,9.55
2023-03-20T10:08:51.353Z,9.7
2023-03-20T10:13:50.585Z,9.85
2023-03-20T10:18:50.215Z,10.06
2023-03-20T10:23:49.993Z,10.1
2023-03-20T10:28:49.444Z,9.95
2023-03-20T10:33:50.004Z,9.89
2023-03-20T10:38:47.308Z,10.31
2023-03-20T10:43:47.138Z,10.97
2023-03-20T10:48:46.401Z,12.05
2023-03-20T10:53:46.084Z,12.46
2023-03-20T10:58:44.656Z,12.08
2023-03-20T11:03:44.420Z,11.58
2023-03-20T11:08:44.501Z,11.39
2023-03-20T11:13:43.690Z,11.41
2023-03-20T11:18:42.167Z,11.25
2023-03-20T11:23:41.617Z,11.25
2023-03-20T11:28:41.769Z,11.06
2023-03-20T11:33:41.200Z,10.75
2023-03-20T11:38:39.413Z,10.72
2023-03-20T11:43:39.211Z,10.82
2023-03-20T11:48:39.309Z,10.78
2023-03-20T11:53:38.551Z,10.64
2023-03-20T11:58:37.726Z,10.48
2023-03-20T12:00:09.058Z,10.47
2023-03-20T12:05:09.423Z,10.55
2023-03-20T12:10:09.561Z,10.55
2023-03-20T12:14:55.985Z,10.44
2023-03-20T12:19:55.763Z,10.31
2023-03-20T12:24:54.856Z,10.37
2023-03-20T12:29:54.535Z,10.6
2023-03-20T12:34:53.064Z,10.79
2023-03-20T12:39:52.695Z,10.97
2023-03-20T12:44:52.748Z,10.99
2023-03-20T12:49:52.412Z,10.94
2023-03-20T12:54:50.553Z,10.86
2023-03-20T12:59:14.431Z,10.81
2023-03-20T13:04:14.533Z,10.67
2023-03-20T13:09:14.234Z,10.52
2023-03-20T13:14:12.342Z,10.38
2023-03-20T13:19:12.111Z,10.22
2023-03-20T13:24:13.102Z,10.17
2023-03-20T13:29:11.340Z,10.18
2023-03-20T13:34:10.678Z,10.13
2023-03-20T13:39:10.203Z,10.07
2023-03-20T13:44:10.164Z,9.93
2023-03-20T13:49:09.463Z,9.82
2023-03-20T13:54:10.018Z,9.72
2023-03-20T13:58:53.544Z,9.59
2023-03-20T14:03:53.411Z,9.5
2023-03-20T14:08:52.576Z,9.22
2023-03-20T14:13:52.098Z,8.87
2023-03-20T14:18:50.630Z,8.72
2023-03-20T14:23:50.114Z,8.79
2023-03-20T14:28:50.182Z,8.93
2023-03-20T14:33:51.561Z,9.16
2023-03-20T14:38:53.763Z,9.21
2023-03-20T14:43:48.607Z,9.18
2023-03-20T14:48:48.537Z,9.22
2023-03-20T14:53:48.016Z,9.1
2023-03-20T14:58:46.484Z,8.99
2023-03-20T15:03:46.093Z,9
2023-03-20T15:08:46.032Z,9
2023-03-20T15:13:45.382Z,8.97
2023-03-20T15:18:44.843Z,9
2023-03-20T15:23:44.298Z,8.95
2023-03-20T15:28:44.308Z,8.84
2023-03-20T15:33:43.757Z,8.78
2023-03-20T15:38:44.472Z,8.76
2023-03-20T15:43:42.105Z,8.8
2023-03-20T15:48:42.135Z,8.84
2023-03-20T15:53:41.286Z,8.82
2023-03-20T15:58:40.902Z,8.78
2023-03-20T16:03:39.248Z,8.74
2023-03-20T16:08:38.888Z,8.72
2023-03-20T16:13:39.117Z,8.72
2023-03-20T16:18:39.273Z,8.64
2023-03-20T16:23:36.798Z,8.54
2023-03-20T16:28:36.075Z,8.43
2023-03-20T16:33:36.204Z,8.32
2023-03-20T16:38:35.663Z,8.09
2023-03-20T16:43:34.132Z,7.86
2023-03-20T16:48:33.572Z,7.7
2023-03-20T16:53:33.933Z,7.6
2023-03-20T16:58:33.051Z,7.56
2023-03-20T16:59:54.881Z,7.54
2023-03-20T17:04:53.994Z,7.5
2023-03-20T17:09:53.842Z,7.43
2023-03-20T17:14:53.239Z,7.36
2023-03-20T17:19:54.173Z,7.28
2023-03-20T17:24:51.602Z,7.2
2023-03-20T17:29:51.659Z,7.14
2023-03-20T17:34:51.733Z,7.11
2023-03-20T17:39:51.378Z,7.08
2023-03-20T17:44:49.653Z,7.06
2023-03-20T17:49:49.947Z,7.03
2023-03-20T17:54:49.516Z,6.98
2023-03-20T17:59:14.569Z,6.94
2023-03-20T18:04:11.749Z,6.94
2023-03-20T18:09:11.536Z,6.94
2023-03-20T18:14:11.489Z,6.94
2023-03-20T18:19:10.858Z,6.92
2023-03-20T18:24:09.222Z,6.91
2023-03-20T18:29:09.026Z,6.93
2023-03-20T18:34:08.772Z,6.94
2023-03-20T18:39:08.024Z,6.95
2023-03-20T18:44:07.177Z,6.95
2023-03-20T18:49:06.883Z,6.94
2023-03-20T18:54:06.857Z,6.93
2023-03-20T18:58:52.051Z,6.93
2023-03-20T19:03:53.066Z,6.91
2023-03-20T19:08:50.215Z,6.91
2023-03-20T19:13:50.251Z,6.91
2023-03-20T19:18:50.292Z,6.9
2023-03-20T19:23:49.429Z,6.88
2023-03-20T19:28:47.581Z,6.89
2023-03-20T19:33:47.338Z,6.89
2023-03-20T19:38:46.617Z,6.89
2023-03-20T19:43:52.726Z,6.89
2023-03-20T19:48:50.308Z,6.91
2023-03-20T19:53:44.470Z,6.91
2023-03-20T19:58:44.473Z,6.93
2023-03-20T20:03:43.391Z,6.95
2023-03-20T20:08:48.184Z,6.97
2023-03-20T20:14:01.819Z,7.01
2023-03-20T20:18:41.894Z,7.02
2023-03-20T20:23:41.437Z,7.03
2023-03-20T20:28:40.642Z,7.04
2023-03-20T20:33:41.531Z,7.06
2023-03-20T20:38:50.351Z,7.07
2023-03-20T20:44:11.838Z,7.07
2023-03-20T20:48:40.258Z,7.09
2023-03-20T20:53:37.688Z,7.1
2023-03-20T20:58:37.522Z,7.12
2023-03-20T21:03:37.687Z,7.13
2023-03-20T21:08:37.300Z,7.15
2023-03-20T21:13:36.967Z,7.16
2023-03-20T21:18:36.708Z,7.19
2023-03-20T21:23:36.027Z,7.21
2023-03-20T21:28:37.050Z,7.23
2023-03-20T21:33:34.204Z,7.25
2023-03-20T21:43:33.032Z,7.29
2023-03-20T22:01:21.589Z,7.35
2023-03-20T22:03:30.774Z,7.36
2023-03-20T22:08:46.829Z,7.38
2023-03-20T22:27:25.177Z,7.42
2023-03-20T22:39:28.447Z,7.45
2023-03-20T22:44:33.849Z,7.47
2023-03-20T22:46:57.873Z,7.49
2023-03-20T22:49:45.652Z,7.53
2023-03-20T22:54:45.213Z,7.54
2023-03-20T22:59:11.413Z,7.55
2023-03-20T23:04:10.663Z,7.56
2023-03-20T23:09:15.148Z,7.57
2023-03-20T23:14:14.690Z,7.58
2023-03-20T23:19:09.141Z,7.59
2023-03-20T23:24:08.678Z,7.6
2023-03-20T23:29:08.175Z,7.61
2023-03-20T23:34:07.619Z,7.62
2023-03-20T23:39:07.636Z,7.63
2023-03-20T23:44:06.700Z,7.63
2023-03-20T23:49:07.551Z,7.64
2023-03-20T23:54:04.917Z,7.64
2023-03-20T23:58:58.218Z,7.64
